a-jp.org alexa rank chart, a-jp.org alexa rank daily changes

a-jp.org alexa rank chart, a-jp.org alexa rank daily changes

a-jp.org
Actual rank:
348 895

RANK HISTORY

Date Rank Diff
2017/04/20 348 895 -27 760
2017/04/19 376 655 -13 758
2017/04/18 390 413 -4 121
2017/04/17 394 534 -1 795
2017/04/16 396 329 -1 551
2017/04/15 397 880 +15 377
2017/04/14 382 503 +644
2017/04/13 381 859 -1 710
2017/04/12 383 569 +13 230
2017/04/11 370 339 -1 198
2017/04/10 371 537 -20 992
2017/04/09 392 529 -4 475
2017/04/08 397 004 +20 223
2017/04/07 376 781 +681
2017/04/06 376 100 +33 021
2017/04/05 343 079 -86
2017/04/04 343 165 -1 247
2017/04/03 344 412 -716
2017/04/02 345 128 -13 742
2017/04/01 358 870 +9 442
2017/03/31 349 428 -24 076
2017/03/30 373 504 -10 744
2017/03/29 384 248 -19 234
2017/03/28 403 482 -789
2017/03/27 404 271 +23 476
2017/03/26 380 795 -53 643
2017/03/25 434 438 -25
2017/03/24 434 463 +25 727
2017/03/23 408 736 -21 685
2017/03/22 430 421 -37 166
2017/03/21 467 587 +36 193
2017/03/20 431 394 -41 157
2017/03/19 472 551 -31 305
2017/03/18 503 856 +8 019
2017/03/17 495 837 -368
2017/03/16 496 205 +201
2017/03/15 496 004 +9 086
2017/03/14 486 918 -22
2017/03/13 486 940 -522
2017/03/12 487 462 +9 434
2017/03/11 478 028 +45 051
2017/03/10 432 977 +76 742
2017/03/09 356 235 +550
2017/03/08 355 685 -64 963
2017/03/07 420 648 +66 080
2017/03/06 354 568 +456
2017/03/01 354 112 +1 046
2017/02/28 353 066 -21 182
2017/02/27 374 248 +18 153
2017/02/26 356 095 -1 330
2017/02/25 357 425 +15 609
2017/02/24 341 816 +4 296
2017/02/23 337 520 +37 082
2017/02/22 300 438 +11 847
2017/02/21 288 591 -2 422
2017/02/20 291 013 -1 603
2017/02/19 292 616

WIDGET FOR YOUR SITE

DOMAINS WITH THE NEAREST RANK

Domain Rank
line-beta.me 348 890
banyuner.com 348 891
weedu.ch 348 892
forum0.net 348 893
ujjwalkarn.me 348 894
a-jp.org 348 895
advertapp.ru 348 896
digitalcamera-hq.com 348 897
hdmoviesdownloadsite.blogspot.in 348 898
templateshock.com 348 899
fabricmartfabrics.com 348 900

DOMAINS WITH THE NEAREST RANK BY TLD .org

Domain Rank
jamesvilledewitt.org 348 784
historyofmassachusetts.org 348 844
veic.org 348 871
sras.org 348 877
waecnigeria.org 348 885
a-jp.org 348 895
ecodelo.org 348 929
dalton.org 348 932
cityoftacoma.org 348 956
bestdns.org 348 960
vivasan.org 349 009